sensor_id;sensor_type;location;lat;lon;timestamp;temperature;humidity
22069;DHT22;13887;57.196;-2.100;2023-04-02T00:01:51;7.18;79.57
22069;DHT22;13887;57.196;-2.100;2023-04-02T00:04:20;7.18;79.24
22069;DHT22;13887;57.196;-2.100;2023-04-02T00:06:50;7.20;79.40
22069;DHT22;13887;57.196;-2.100;2023-04-02T00:09:34;7.19;79.48
22069;DHT22;13887;57.196;-2.100;2023-04-02T00:12:14;7.19;79.41
22069;DHT22;13887;57.196;-2.100;2023-04-02T00:14:47;7.18;79.45
22069;DHT22;13887;57.196;-2.100;2023-04-02T00:17:15;7.18;79.40
22069;DHT22;13887;57.196;-2.100;2023-04-02T00:19:54;7.18;79.38
22069;DHT22;13887;57.196;-2.100;2023-04-02T00:22:28;7.19;79.50
22069;DHT22;13887;57.196;-2.100;2023-04-02T00:25:00;7.18;79.27
22069;DHT22;13887;57.196;-2.100;2023-04-02T00:27:29;7.19;79.30
22069;DHT22;13887;57.196;-2.100;2023-04-02T00:29:58;7.20;79.23
22069;DHT22;13887;57.196;-2.100;2023-04-02T00:32:33;7.19;79.21
22069;DHT22;13887;57.196;-2.100;2023-04-02T00:35:02;7.20;79.37
22069;DHT22;13887;57.196;-2.100;2023-04-02T00:37:32;7.19;79.44
22069;DHT22;13887;57.196;-2.100;2023-04-02T00:40:16;7.19;79.33
22069;DHT22;13887;57.196;-2.100;2023-04-02T00:42:45;7.20;79.44
22069;DHT22;13887;57.196;-2.100;2023-04-02T00:45:35;7.20;79.27
22069;DHT22;13887;57.196;-2.100;2023-04-02T00:50:50;7.22;79.45
22069;DHT22;13887;57.196;-2.100;2023-04-02T00:53:24;7.19;79.40
22069;DHT22;13887;57.196;-2.100;2023-04-02T00:55:53;7.19;79.41
22069;DHT22;13887;57.196;-2.100;2023-04-02T00:58:33;7.20;79.50
22069;DHT22;13887;57.196;-2.100;2023-04-02T01:01:01;7.23;79.41
22069;DHT22;13887;57.196;-2.100;2023-04-02T01:03:32;7.19;79.17
22069;DHT22;13887;57.196;-2.100;2023-04-02T01:06:05;7.23;79.25
22069;DHT22;13887;57.196;-2.100;2023-04-02T01:19:00;7.23;79.24
22069;DHT22;13887;57.196;-2.100;2023-04-02T01:21:39;7.22;79.42
22069;DHT22;13887;57.196;-2.100;2023-04-02T01:24:10;7.20;79.25
22069;DHT22;13887;57.196;-2.100;2023-04-02T01:31:50;7.23;79.09
22069;DHT22;13887;57.196;-2.100;2023-04-02T01:34:22;7.22;79.23
22069;DHT22;13887;57.196;-2.100;2023-04-02T01:42:21;7.22;79.25
22069;DHT22;13887;57.196;-2.100;2023-04-02T01:44:58;7.19;79.11
22069;DHT22;13887;57.196;-2.100;2023-04-02T01:47:26;7.18;79.11
22069;DHT22;13887;57.196;-2.100;2023-04-02T01:50:23;7.18;79.21
22069;DHT22;13887;57.196;-2.100;2023-04-02T01:52:54;7.17;79.20
22069;DHT22;13887;57.196;-2.100;2023-04-02T01:55:47;7.18;79.16
22069;DHT22;13887;57.196;-2.100;2023-04-02T01:58:23;7.17;79.27
22069;DHT22;13887;57.196;-2.100;2023-04-02T02:00:58;7.17;79.25
22069;DHT22;13887;57.196;-2.100;2023-04-02T02:03:28;7.15;79.36
22069;DHT22;13887;57.196;-2.100;2023-04-02T02:05:55;7.16;79.37
22069;DHT22;13887;57.196;-2.100;2023-04-02T02:11:19;7.17;79.31
22069;DHT22;13887;57.196;-2.100;2023-04-02T02:13:52;7.19;79.40
22069;DHT22;13887;57.196;-2.100;2023-04-02T02:16:21;7.18;79.53
22069;DHT22;13887;57.196;-2.100;2023-04-02T02:18:50;7.20;79.44
22069;DHT22;13887;57.196;-2.100;2023-04-02T02:21:46;7.17;79.49
22069;DHT22;13887;57.196;-2.100;2023-04-02T02:24:19;7.18;79.43
22069;DHT22;13887;57.196;-2.100;2023-04-02T02:26:52;7.19;79.32
22069;DHT22;13887;57.196;-2.100;2023-04-02T02:29:21;7.19;79.38
22069;DHT22;13887;57.196;-2.100;2023-04-02T02:31:52;7.18;79.48
22069;DHT22;13887;57.196;-2.100;2023-04-02T02:34:30;7.18;79.46
22069;DHT22;13887;57.196;-2.100;2023-04-02T02:37:23;7.19;79.46
22069;DHT22;13887;57.196;-2.100;2023-04-02T02:39:53;7.16;79.45
22069;DHT22;13887;57.196;-2.100;2023-04-02T02:42:31;7.17;79.56
22069;DHT22;13887;57.196;-2.100;2023-04-02T02:45:01;7.18;79.51
22069;DHT22;13887;57.196;-2.100;2023-04-02T02:47:33;7.17;79.66
22069;DHT22;13887;57.196;-2.100;2023-04-02T02:50:12;7.16;79.78
22069;DHT22;13887;57.196;-2.100;2023-04-02T02:52:46;7.16;79.73
22069;DHT22;13887;57.196;-2.100;2023-04-02T02:55:19;7.17;79.72
22069;DHT22;13887;57.196;-2.100;2023-04-02T02:58:01;7.16;79.82
22069;DHT22;13887;57.196;-2.100;2023-04-02T03:00:37;7.15;79.72
22069;DHT22;13887;57.196;-2.100;2023-04-02T03:03:21;7.16;79.66
22069;DHT22;13887;57.196;-2.100;2023-04-02T03:05:58;7.16;79.78
22069;DHT22;13887;57.196;-2.100;2023-04-02T03:08:55;7.17;79.69
22069;DHT22;13887;57.196;-2.100;2023-04-02T03:11:39;7.16;79.87
22069;DHT22;13887;57.196;-2.100;2023-04-02T03:14:30;7.16;79.78
22069;DHT22;13887;57.196;-2.100;2023-04-02T03:17:11;7.17;79.87
22069;DHT22;13887;57.196;-2.100;2023-04-02T03:19:48;7.16;79.82
22069;DHT22;13887;57.196;-2.100;2023-04-02T03:22:25;7.16;79.85
22069;DHT22;13887;57.196;-2.100;2023-04-02T03:25:47;7.16;79.87
22069;DHT22;13887;57.196;-2.100;2023-04-02T03:28:20;7.16;79.96
22069;DHT22;13887;57.196;-2.100;2023-04-02T03:31:02;7.16;79.91
22069;DHT22;13887;57.196;-2.100;2023-04-02T03:33:35;7.18;79.73
22069;DHT22;13887;57.196;-2.100;2023-04-02T03:36:25;7.18;79.82
22069;DHT22;13887;57.196;-2.100;2023-04-02T03:39:19;7.17;79.79
22069;DHT22;13887;57.196;-2.100;2023-04-02T03:42:16;7.18;79.85
22069;DHT22;13887;57.196;-2.100;2023-04-02T03:47:38;7.16;79.92
22069;DHT22;13887;57.196;-2.100;2023-04-02T03:53:03;7.15;79.98
22069;DHT22;13887;57.196;-2.100;2023-04-02T03:55:35;7.15;79.94
22069;DHT22;13887;57.196;-2.100;2023-04-02T04:01:04;7.15;79.90
22069;DHT22;13887;57.196;-2.100;2023-04-02T04:03:39;7.15;80.02
22069;DHT22;13887;57.196;-2.100;2023-04-02T04:06:28;7.14;79.95
22069;DHT22;13887;57.196;-2.100;2023-04-02T04:09:00;7.15;79.79
22069;DHT22;13887;57.196;-2.100;2023-04-02T04:11:35;7.17;79.69
22069;DHT22;13887;57.196;-2.100;2023-04-02T04:17:15;7.17;79.75
22069;DHT22;13887;57.196;-2.100;2023-04-02T04:22:34;7.16;79.93
22069;DHT22;13887;57.196;-2.100;2023-04-02T04:25:25;7.15;79.88
22069;DHT22;13887;57.196;-2.100;2023-04-02T04:28:20;7.15;79.85
22069;DHT22;13887;57.196;-2.100;2023-04-02T04:33:37;7.15;79.77
22069;DHT22;13887;57.196;-2.100;2023-04-02T04:36:28;7.14;79.85
22069;DHT22;13887;57.196;-2.100;2023-04-02T04:39:11;7.15;79.82
22069;DHT22;13887;57.196;-2.100;2023-04-02T04:41:47;7.14;79.94
22069;DHT22;13887;57.196;-2.100;2023-04-02T04:44:24;7.15;79.89
22069;DHT22;13887;57.196;-2.100;2023-04-02T04:47:02;7.13;79.98
22069;DHT22;13887;57.196;-2.100;2023-04-02T04:49:43;7.14;79.91
22069;DHT22;13887;57.196;-2.100;2023-04-02T04:52:23;7.15;79.90
22069;DHT22;13887;57.196;-2.100;2023-04-02T04:54:51;7.13;79.94
22069;DHT22;13887;57.196;-2.100;2023-04-02T05:00:09;7.14;79.68
22069;DHT22;13887;57.196;-2.100;2023-04-02T05:02:50;7.14;79.80
22069;DHT22;13887;57.196;-2.100;2023-04-02T05:05:25;7.14;79.71
22069;DHT22;13887;57.196;-2.100;2023-04-02T05:08:13;7.13;79.74
22069;DHT22;13887;57.196;-2.100;2023-04-02T05:10:47;7.13;79.66
22069;DHT22;13887;57.196;-2.100;2023-04-02T05:13:29;7.14;79.75
22069;DHT22;13887;57.196;-2.100;2023-04-02T05:16:32;7.13;79.71
22069;DHT22;13887;57.196;-2.100;2023-04-02T05:19:24;7.12;79.64
22069;DHT22;13887;57.196;-2.100;2023-04-02T05:25:14;7.13;79.63
22069;DHT22;13887;57.196;-2.100;2023-04-02T05:33:00;7.13;79.76
22069;DHT22;13887;57.196;-2.100;2023-04-02T05:35:33;7.15;79.73
22069;DHT22;13887;57.196;-2.100;2023-04-02T05:38:03;7.13;79.66
22069;DHT22;13887;57.196;-2.100;2023-04-02T05:40:41;7.14;79.53
22069;DHT22;13887;57.196;-2.100;2023-04-02T05:43:09;7.14;79.65
22069;DHT22;13887;57.196;-2.100;2023-04-02T05:45:44;7.13;79.72
22069;DHT22;13887;57.196;-2.100;2023-04-02T05:48:19;7.14;79.73
22069;DHT22;13887;57.196;-2.100;2023-04-02T05:50:50;7.14;79.75
22069;DHT22;13887;57.196;-2.100;2023-04-02T05:53:27;7.15;79.66
22069;DHT22;13887;57.196;-2.100;2023-04-02T05:56:29;7.15;79.68
22069;DHT22;13887;57.196;-2.100;2023-04-02T05:59:26;7.17;79.66
22069;DHT22;13887;57.196;-2.100;2023-04-02T06:02:18;7.14;79.69
22069;DHT22;13887;57.196;-2.100;2023-04-02T06:04:58;7.15;79.59
22069;DHT22;13887;57.196;-2.100;2023-04-02T06:10:25;7.14;79.69
22069;DHT22;13887;57.196;-2.100;2023-04-02T06:12:56;7.14;79.72
22069;DHT22;13887;57.196;-2.100;2023-04-02T06:15:34;7.15;79.53
22069;DHT22;13887;57.196;-2.100;2023-04-02T06:18:13;7.14;79.68
22069;DHT22;13887;57.196;-2.100;2023-04-02T06:20:42;7.14;79.62
22069;DHT22;13887;57.196;-2.100;2023-04-02T06:26:25;7.14;79.58
22069;DHT22;13887;57.196;-2.100;2023-04-02T06:29:00;7.13;79.72
22069;DHT22;13887;57.196;-2.100;2023-04-02T06:31:46;7.14;79.62
22069;DHT22;13887;57.196;-2.100;2023-04-02T06:34:20;7.15;79.69
22069;DHT22;13887;57.196;-2.100;2023-04-02T06:37:29;7.15;79.66
22069;DHT22;13887;57.196;-2.100;2023-04-02T06:40:43;7.16;79.68
22069;DHT22;13887;57.196;-2.100;2023-04-02T06:43:36;7.16;79.76
22069;DHT22;13887;57.196;-2.100;2023-04-02T06:46:31;7.16;79.76
22069;DHT22;13887;57.196;-2.100;2023-04-02T06:49:24;7.15;79.75
22069;DHT22;13887;57.196;-2.100;2023-04-02T06:52:01;7.14;79.82
22069;DHT22;13887;57.196;-2.100;2023-04-02T06:54:30;7.16;79.81
22069;DHT22;13887;57.196;-2.100;2023-04-02T06:57:03;7.18;79.82
22069;DHT22;13887;57.196;-2.100;2023-04-02T06:59:34;7.18;79.85
22069;DHT22;13887;57.196;-2.100;2023-04-02T07:02:19;7.18;79.85
22069;DHT22;13887;57.196;-2.100;2023-04-02T07:04:48;7.19;79.75
22069;DHT22;13887;57.196;-2.100;2023-04-02T07:07:16;7.18;79.86
22069;DHT22;13887;57.196;-2.100;2023-04-02T07:09:45;7.19;79.83
22069;DHT22;13887;57.196;-2.100;2023-04-02T07:12:14;7.19;79.85
22069;DHT22;13887;57.196;-2.100;2023-04-02T07:14:42;7.19;79.95
22069;DHT22;13887;57.196;-2.100;2023-04-02T07:17:15;7.18;79.99
22069;DHT22;13887;57.196;-2.100;2023-04-02T07:19:44;7.19;79.95
22069;DHT22;13887;57.196;-2.100;2023-04-02T07:22:18;7.20;79.94
22069;DHT22;13887;57.196;-2.100;2023-04-02T07:24:49;7.20;79.96
22069;DHT22;13887;57.196;-2.100;2023-04-02T07:27:16;7.22;79.91
22069;DHT22;13887;57.196;-2.100;2023-04-02T07:29:43;7.22;79.93
22069;DHT22;13887;57.196;-2.100;2023-04-02T07:32:12;7.22;79.91
22069;DHT22;13887;57.196;-2.100;2023-04-02T07:34:39;7.23;79.96
22069;DHT22;13887;57.196;-2.100;2023-04-02T07:37:11;7.23;79.98
22069;DHT22;13887;57.196;-2.100;2023-04-02T07:39:38;7.25;80.00
22069;DHT22;13887;57.196;-2.100;2023-04-02T07:42:06;7.27;79.89
22069;DHT22;13887;57.196;-2.100;2023-04-02T07:44:33;7.26;79.83
22069;DHT22;13887;57.196;-2.100;2023-04-02T07:47:00;7.24;79.91
22069;DHT22;13887;57.196;-2.100;2023-04-02T07:49:27;7.24;79.95
22069;DHT22;13887;57.196;-2.100;2023-04-02T07:51:54;7.24;79.99
22069;DHT22;13887;57.196;-2.100;2023-04-02T07:54:22;7.25;79.90
22069;DHT22;13887;57.196;-2.100;2023-04-02T07:56:48;7.26;79.89
22069;DHT22;13887;57.196;-2.100;2023-04-02T07:59:16;7.24;79.78
22069;DHT22;13887;57.196;-2.100;2023-04-02T08:01:43;7.26;79.78
22069;DHT22;13887;57.196;-2.100;2023-04-02T08:04:18;7.27;79.93
22069;DHT22;13887;57.196;-2.100;2023-04-02T08:06:47;7.27;79.96
22069;DHT22;13887;57.196;-2.100;2023-04-02T08:09:15;7.27;79.89
22069;DHT22;13887;57.196;-2.100;2023-04-02T08:11:42;7.29;79.87
22069;DHT22;13887;57.196;-2.100;2023-04-02T08:14:10;7.29;79.88
22069;DHT22;13887;57.196;-2.100;2023-04-02T08:16:51;7.30;79.77
22069;DHT22;13887;57.196;-2.100;2023-04-02T08:19:18;7.30;79.86
22069;DHT22;13887;57.196;-2.100;2023-04-02T08:21:46;7.31;79.89
22069;DHT22;13887;57.196;-2.100;2023-04-02T08:24:19;7.32;79.84
22069;DHT22;13887;57.196;-2.100;2023-04-02T08:26:48;7.33;79.83
22069;DHT22;13887;57.196;-2.100;2023-04-02T08:29:15;7.32;79.80
22069;DHT22;13887;57.196;-2.100;2023-04-02T08:31:42;7.34;79.72
22069;DHT22;13887;57.196;-2.100;2023-04-02T08:34:09;7.34;79.79
22069;DHT22;13887;57.196;-2.100;2023-04-02T08:36:39;7.34;79.82
22069;DHT22;13887;57.196;-2.100;2023-04-02T08:39:08;7.35;79.77
22069;DHT22;13887;57.196;-2.100;2023-04-02T08:44:30;7.37;79.73
22069;DHT22;13887;57.196;-2.100;2023-04-02T08:47:02;7.37;79.72
22069;DHT22;13887;57.196;-2.100;2023-04-02T08:49:43;7.38;79.74
22069;DHT22;13887;57.196;-2.100;2023-04-02T08:52:24;7.38;79.66
22069;DHT22;13887;57.196;-2.100;2023-04-02T08:54:52;7.41;79.62
22069;DHT22;13887;57.196;-2.100;2023-04-02T08:57:52;7.44;79.52
22069;DHT22;13887;57.196;-2.100;2023-04-02T09:00:42;7.44;79.61
22069;DHT22;13887;57.196;-2.100;2023-04-02T09:05:42;7.46;79.73
22069;DHT22;13887;57.196;-2.100;2023-04-02T09:08:21;7.46;79.71
22069;DHT22;13887;57.196;-2.100;2023-04-02T09:10:55;7.50;79.55
22069;DHT22;13887;57.196;-2.100;2023-04-02T09:13:28;7.49;79.50
22069;DHT22;13887;57.196;-2.100;2023-04-02T09:18:36;7.50;79.64
22069;DHT22;13887;57.196;-2.100;2023-04-02T09:21:34;7.50;79.52
22069;DHT22;13887;57.196;-2.100;2023-04-02T09:24:03;7.52;79.54
22069;DHT22;13887;57.196;-2.100;2023-04-02T09:26:32;7.54;79.71
22069;DHT22;13887;57.196;-2.100;2023-04-02T09:34:44;7.53;79.52
22069;DHT22;13887;57.196;-2.100;2023-04-02T09:37:19;7.55;79.59
22069;DHT22;13887;57.196;-2.100;2023-04-02T09:39:48;7.57;79.59
22069;DHT22;13887;57.196;-2.100;2023-04-02T09:42:44;7.59;79.48
22069;DHT22;13887;57.196;-2.100;2023-04-02T09:45:17;7.60;79.47
22069;DHT22;13887;57.196;-2.100;2023-04-02T09:47:45;7.60;79.53
22069;DHT22;13887;57.196;-2.100;2023-04-02T09:50:33;7.62;79.35
22069;DHT22;13887;57.196;-2.100;2023-04-02T09:53:30;7.61;79.61
22069;DHT22;13887;57.196;-2.100;2023-04-02T09:56:13;7.62;79.45
22069;DHT22;13887;57.196;-2.100;2023-04-02T09:58:43;7.63;79.49
22069;DHT22;13887;57.196;-2.100;2023-04-02T10:01:30;7.63;79.49
22069;DHT22;13887;57.196;-2.100;2023-04-02T10:03:58;7.64;79.59
22069;DHT22;13887;57.196;-2.100;2023-04-02T10:06:29;7.64;79.55
22069;DHT22;13887;57.196;-2.100;2023-04-02T10:08:57;7.65;79.52
22069;DHT22;13887;57.196;-2.100;2023-04-02T10:11:31;7.67;79.60
22069;DHT22;13887;57.196;-2.100;2023-04-02T10:14:19;7.67;79.72
22069;DHT22;13887;57.196;-2.100;2023-04-02T10:16:51;7.73;77.84
22069;DHT22;13887;57.196;-2.100;2023-04-02T10:19:36;8.07;76.85
22069;DHT22;13887;57.196;-2.100;2023-04-02T10:22:14;8.02;78.35
22069;DHT22;13887;57.196;-2.100;2023-04-02T10:24:43;7.91;78.98
22069;DHT22;13887;57.196;-2.100;2023-04-02T10:27:25;7.86;79.46
22069;DHT22;13887;57.196;-2.100;2023-04-02T10:30:04;7.84;79.93
22069;DHT22;13887;57.196;-2.100;2023-04-02T10:33:06;7.84;80.22
22069;DHT22;13887;57.196;-2.100;2023-04-02T10:38:47;7.86;80.33
22069;DHT22;13887;57.196;-2.100;2023-04-02T10:44:02;7.84;80.59
22069;DHT22;13887;57.196;-2.100;2023-04-02T10:47:13;7.82;80.57
22069;DHT22;13887;57.196;-2.100;2023-04-02T10:55:29;7.86;80.73
22069;DHT22;13887;57.196;-2.100;2023-04-02T10:58:02;7.85;80.79
22069;DHT22;13887;57.196;-2.100;2023-04-02T11:00:33;7.87;80.75
22069;DHT22;13887;57.196;-2.100;2023-04-02T11:03:06;7.89;80.60
22069;DHT22;13887;57.196;-2.100;2023-04-02T11:10:48;7.91;80.87
22069;DHT22;13887;57.196;-2.100;2023-04-02T11:15:46;7.93;80.87
22069;DHT22;13887;57.196;-2.100;2023-04-02T11:18:22;7.96;80.85
22069;DHT22;13887;57.196;-2.100;2023-04-02T11:20:54;7.99;80.97
22069;DHT22;13887;57.196;-2.100;2023-04-02T11:23:26;7.99;80.98
22069;DHT22;13887;57.196;-2.100;2023-04-02T11:29:08;8.00;80.91
22069;DHT22;13887;57.196;-2.100;2023-04-02T11:31:38;8.01;80.70
22069;DHT22;13887;57.196;-2.100;2023-04-02T11:34:05;8.03;80.83
22069;DHT22;13887;57.196;-2.100;2023-04-02T11:42:23;8.06;80.81
22069;DHT22;13887;57.196;-2.100;2023-04-02T11:44:52;8.05;80.99
22069;DHT22;13887;57.196;-2.100;2023-04-02T11:47:25;8.07;80.91
22069;DHT22;13887;57.196;-2.100;2023-04-02T11:55:26;8.11;80.83
22069;DHT22;13887;57.196;-2.100;2023-04-02T12:06:37;8.15;80.63
22069;DHT22;13887;57.196;-2.100;2023-04-02T12:09:20;8.17;80.65
22069;DHT22;13887;57.196;-2.100;2023-04-02T12:11:53;8.19;80.46
22069;DHT22;13887;57.196;-2.100;2023-04-02T12:17:31;8.20;80.37
22069;DHT22;13887;57.196;-2.100;2023-04-02T12:22:31;8.23;80.37
22069;DHT22;13887;57.196;-2.100;2023-04-02T12:25:05;8.23;80.37
22069;DHT22;13887;57.196;-2.100;2023-04-02T12:27:32;8.24;80.47
22069;DHT22;13887;57.196;-2.100;2023-04-02T12:30:13;8.27;80.45
22069;DHT22;13887;57.196;-2.100;2023-04-02T12:32:42;8.29;80.36
22069;DHT22;13887;57.196;-2.100;2023-04-02T12:35:43;8.31;80.20
22069;DHT22;13887;57.196;-2.100;2023-04-02T12:38:28;8.30;80.11
22069;DHT22;13887;57.196;-2.100;2023-04-02T12:41:04;8.32;80.04
22069;DHT22;13887;57.196;-2.100;2023-04-02T12:43:33;8.30;80.05
22069;DHT22;13887;57.196;-2.100;2023-04-02T12:46:03;8.30;79.98
22069;DHT22;13887;57.196;-2.100;2023-04-02T12:48:31;8.31;80.11
22069;DHT22;13887;57.196;-2.100;2023-04-02T12:50:59;8.32;80.04
22069;DHT22;13887;57.196;-2.100;2023-04-02T12:53:39;8.31;80.04
22069;DHT22;13887;57.196;-2.100;2023-04-02T12:56:06;8.33;80.01
22069;DHT22;13887;57.196;-2.100;2023-04-02T12:58:38;8.37;79.90
22069;DHT22;13887;57.196;-2.100;2023-04-02T13:01:20;8.37;79.79
22069;DHT22;13887;57.196;-2.100;2023-04-02T13:06:30;8.37;79.72
22069;DHT22;13887;57.196;-2.100;2023-04-02T13:08:58;8.36;79.86
22069;DHT22;13887;57.196;-2.100;2023-04-02T13:11:37;8.37;79.87
22069;DHT22;13887;57.196;-2.100;2023-04-02T13:14:16;8.37;79.85
22069;DHT22;13887;57.196;-2.100;2023-04-02T13:16:44;8.37;79.95
22069;DHT22;13887;57.196;-2.100;2023-04-02T13:21:54;8.39;79.70
22069;DHT22;13887;57.196;-2.100;2023-04-02T13:24:24;8.41;80.03
22069;DHT22;13887;57.196;-2.100;2023-04-02T13:26:56;8.41;79.96
22069;DHT22;13887;57.196;-2.100;2023-04-02T13:29:29;8.42;79.87
22069;DHT22;13887;57.196;-2.100;2023-04-02T13:31:59;8.43;79.75
22069;DHT22;13887;57.196;-2.100;2023-04-02T13:34:27;8.44;79.50
22069;DHT22;13887;57.196;-2.100;2023-04-02T13:36:54;8.44;79.59
22069;DHT22;13887;57.196;-2.100;2023-04-02T13:39:23;8.45;79.44
22069;DHT22;13887;57.196;-2.100;2023-04-02T13:41:56;8.44;79.84
22069;DHT22;13887;57.196;-2.100;2023-04-02T13:44:31;8.47;79.70
22069;DHT22;13887;57.196;-2.100;2023-04-02T13:46:59;8.47;79.65
22069;DHT22;13887;57.196;-2.100;2023-04-02T13:49:26;8.51;79.72
22069;DHT22;13887;57.196;-2.100;2023-04-02T13:51:58;8.51;79.72
22069;DHT22;13887;57.196;-2.100;2023-04-02T13:54:28;8.53;79.75
22069;DHT22;13887;57.196;-2.100;2023-04-02T13:56:56;8.52;79.71
22069;DHT22;13887;57.196;-2.100;2023-04-02T13:59:25;8.53;79.62
22069;DHT22;13887;57.196;-2.100;2023-04-02T14:01:56;8.53;79.60
22069;DHT22;13887;57.196;-2.100;2023-04-02T14:04:29;8.55;79.47
22069;DHT22;13887;57.196;-2.100;2023-04-02T14:29:04;8.63;79.24
22069;DHT22;13887;57.196;-2.100;2023-04-02T14:31:39;8.61;79.10
22069;DHT22;13887;57.196;-2.100;2023-04-02T14:34:20;8.59;78.98
22069;DHT22;13887;57.196;-2.100;2023-04-02T14:37:22;8.61;79.20
22069;DHT22;13887;57.196;-2.100;2023-04-02T14:45:45;8.62;79.16
22069;DHT22;13887;57.196;-2.100;2023-04-02T14:48:24;8.63;79.11
22069;DHT22;13887;57.196;-2.100;2023-04-02T14:51:04;8.62;79.12
22069;DHT22;13887;57.196;-2.100;2023-04-02T14:53:35;8.61;78.82
22069;DHT22;13887;57.196;-2.100;2023-04-02T14:56:09;8.63;79.07
22069;DHT22;13887;57.196;-2.100;2023-04-02T14:58:42;8.67;78.98
22069;DHT22;13887;57.196;-2.100;2023-04-02T15:01:19;8.71;79.08
22069;DHT22;13887;57.196;-2.100;2023-04-02T15:03:57;8.71;78.80
22069;DHT22;13887;57.196;-2.100;2023-04-02T15:06:49;8.71;78.83
22069;DHT22;13887;57.196;-2.100;2023-04-02T15:09:36;8.73;78.70
22069;DHT22;13887;57.196;-2.100;2023-04-02T15:12:22;8.73;78.99
22069;DHT22;13887;57.196;-2.100;2023-04-02T15:14:57;8.72;78.87
22069;DHT22;13887;57.196;-2.100;2023-04-02T15:17:25;8.72;79.05
22069;DHT22;13887;57.196;-2.100;2023-04-02T15:20:11;8.71;79.01
22069;DHT22;13887;57.196;-2.100;2023-04-02T15:25:30;8.74;78.85
22069;DHT22;13887;57.196;-2.100;2023-04-02T15:30:44;8.76;79.04
22069;DHT22;13887;57.196;-2.100;2023-04-02T15:35:55;8.76;78.84
22069;DHT22;13887;57.196;-2.100;2023-04-02T15:38:58;8.76;78.64
22069;DHT22;13887;57.196;-2.100;2023-04-02T15:41:32;8.76;78.94
22069;DHT22;13887;57.196;-2.100;2023-04-02T15:44:15;8.76;78.49
22069;DHT22;13887;57.196;-2.100;2023-04-02T16:05:41;8.78;78.21
22069;DHT22;13887;57.196;-2.100;2023-04-02T16:11:12;8.79;78.35
22069;DHT22;13887;57.196;-2.100;2023-04-02T16:13:41;8.80;77.87
22069;DHT22;13887;57.196;-2.100;2023-04-02T16:16:14;8.80;78.14
22069;DHT22;13887;57.196;-2.100;2023-04-02T16:21:22;8.78;78.32
22069;DHT22;13887;57.196;-2.100;2023-04-02T16:23:50;8.78;78.50
22069;DHT22;13887;57.196;-2.100;2023-04-02T16:34:46;8.80;78.66
22069;DHT22;13887;57.196;-2.100;2023-04-02T16:37:34;8.87;78.41
22069;DHT22;13887;57.196;-2.100;2023-04-02T16:51:17;8.81;77.97
22069;DHT22;13887;57.196;-2.100;2023-04-02T16:56:47;8.79;78.07
22069;DHT22;13887;57.196;-2.100;2023-04-02T17:02:09;8.76;77.11
22069;DHT22;13887;57.196;-2.100;2023-04-02T17:07:34;8.77;77.00
22069;DHT22;13887;57.196;-2.100;2023-04-02T17:17:01;8.76;77.14
22069;DHT22;13887;57.196;-2.100;2023-04-02T17:19:13;8.76;77.21
22069;DHT22;13887;57.196;-2.100;2023-04-02T17:21:44;8.73;77.18
22069;DHT22;13887;57.196;-2.100;2023-04-02T17:27:34;8.73;77.17
22069;DHT22;13887;57.196;-2.100;2023-04-02T17:30:36;8.74;77.30
22069;DHT22;13887;57.196;-2.100;2023-04-02T17:33:16;8.74;77.40
22069;DHT22;13887;57.196;-2.100;2023-04-02T17:38:52;8.68;76.57
22069;DHT22;13887;57.196;-2.100;2023-04-02T17:44:47;8.67;76.71
22069;DHT22;13887;57.196;-2.100;2023-04-02T17:52:21;8.71;76.92
22069;DHT22;13887;57.196;-2.100;2023-04-02T17:55:20;8.70;76.85
22069;DHT22;13887;57.196;-2.100;2023-04-02T17:58:37;8.68;76.63
22069;DHT22;13887;57.196;-2.100;2023-04-02T18:01:37;8.66;76.91
22069;DHT22;13887;57.196;-2.100;2023-04-02T18:20:21;8.61;76.70
22069;DHT22;13887;57.196;-2.100;2023-04-02T18:28:36;8.53;77.26
22069;DHT22;13887;57.196;-2.100;2023-04-02T18:36:46;8.48;76.95
22069;DHT22;13887;57.196;-2.100;2023-04-02T18:50:47;8.38;77.01
22069;DHT22;13887;57.196;-2.100;2023-04-02T18:53:22;8.39;76.95
22069;DHT22;13887;57.196;-2.100;2023-04-02T18:55:55;8.38;76.79
22069;DHT22;13887;57.196;-2.100;2023-04-02T19:01:07;8.33;76.89
22069;DHT22;13887;57.196;-2.100;2023-04-02T19:03:41;8.33;76.92
22069;DHT22;13887;57.196;-2.100;2023-04-02T19:06:16;8.33;76.97
22069;DHT22;13887;57.196;-2.100;2023-04-02T19:08:57;8.32;76.71
22069;DHT22;13887;57.196;-2.100;2023-04-02T19:11:26;8.31;76.85
22069;DHT22;13887;57.196;-2.100;2023-04-02T19:22:02;8.24;76.93
22069;DHT22;13887;57.196;-2.100;2023-04-02T19:27:47;8.23;76.95
22069;DHT22;13887;57.196;-2.100;2023-04-02T19:41:46;8.19;77.19
22069;DHT22;13887;57.196;-2.100;2023-04-02T19:44:14;8.20;77.24
22069;DHT22;13887;57.196;-2.100;2023-04-02T19:46:42;8.15;77.35
22069;DHT22;13887;57.196;-2.100;2023-04-02T19:49:25;8.15;77.37
22069;DHT22;13887;57.196;-2.100;2023-04-02T19:51:54;8.14;77.21
22069;DHT22;13887;57.196;-2.100;2023-04-02T19:54:22;8.14;77.41
22069;DHT22;13887;57.196;-2.100;2023-04-02T19:56:49;8.15;77.49
22069;DHT22;13887;57.196;-2.100;2023-04-02T19:59:16;8.14;77.14
22069;DHT22;13887;57.196;-2.100;2023-04-02T20:01:45;8.13;77.22
22069;DHT22;13887;57.196;-2.100;2023-04-02T20:04:12;8.13;77.39
22069;DHT22;13887;57.196;-2.100;2023-04-02T20:06:40;8.12;77.31
22069;DHT22;13887;57.196;-2.100;2023-04-02T20:09:07;8.13;77.28
22069;DHT22;13887;57.196;-2.100;2023-04-02T20:11:36;8.09;77.29
22069;DHT22;13887;57.196;-2.100;2023-04-02T20:14:03;8.08;77.38
22069;DHT22;13887;57.196;-2.100;2023-04-02T20:16:31;8.08;77.30
22069;DHT22;13887;57.196;-2.100;2023-04-02T20:18:59;8.06;77.15
22069;DHT22;13887;57.196;-2.100;2023-04-02T20:21:26;8.05;77.36
22069;DHT22;13887;57.196;-2.100;2023-04-02T20:23:54;8.05;77.46
22069;DHT22;13887;57.196;-2.100;2023-04-02T20:26:21;8.03;77.53
22069;DHT22;13887;57.196;-2.100;2023-04-02T20:28:48;8.02;77.39
22069;DHT22;13887;57.196;-2.100;2023-04-02T20:31:17;8.02;77.31
22069;DHT22;13887;57.196;-2.100;2023-04-02T20:33:44;8.01;77.37
22069;DHT22;13887;57.196;-2.100;2023-04-02T20:36:15;8.00;77.15
22069;DHT22;13887;57.196;-2.100;2023-04-02T20:38:43;7.99;77.15
22069;DHT22;13887;57.196;-2.100;2023-04-02T20:41:11;7.99;77.26
22069;DHT22;13887;57.196;-2.100;2023-04-02T20:43:41;7.99;77.29
22069;DHT22;13887;57.196;-2.100;2023-04-02T20:46:10;7.97;77.24
22069;DHT22;13887;57.196;-2.100;2023-04-02T20:48:38;7.97;77.30
22069;DHT22;13887;57.196;-2.100;2023-04-02T20:51:07;7.96;77.29
22069;DHT22;13887;57.196;-2.100;2023-04-02T20:53:35;7.96;77.21
22069;DHT22;13887;57.196;-2.100;2023-04-02T20:56:08;7.94;77.20
22069;DHT22;13887;57.196;-2.100;2023-04-02T20:58:36;7.94;77.34
22069;DHT22;13887;57.196;-2.100;2023-04-02T21:01:24;7.91;77.43
22069;DHT22;13887;57.196;-2.100;2023-04-02T21:04:00;7.91;77.06
22069;DHT22;13887;57.196;-2.100;2023-04-02T21:06:30;7.92;77.12
22069;DHT22;13887;57.196;-2.100;2023-04-02T21:08:59;7.90;77.23
22069;DHT22;13887;57.196;-2.100;2023-04-02T21:11:26;7.89;77.29
22069;DHT22;13887;57.196;-2.100;2023-04-02T21:13:53;7.89;77.15
22069;DHT22;13887;57.196;-2.100;2023-04-02T21:16:22;7.87;76.95
22069;DHT22;13887;57.196;-2.100;2023-04-02T21:18:51;7.86;76.85
22069;DHT22;13887;57.196;-2.100;2023-04-02T21:21:19;7.88;77.14
22069;DHT22;13887;57.196;-2.100;2023-04-02T21:23:51;7.85;77.02